sensor_id;sensor_type;location;lat;lon;timestamp;pressure;altitude;pressure_sealevel;temperature;humidity
40592;BME280;26301;42.832;23.918;2022-11-04T00:01:57;93313.03;;;8.78;85.50
40592;BME280;26301;42.832;23.918;2022-11-04T00:04:25;93315.50;;;8.73;85.65
40592;BME280;26301;42.832;23.918;2022-11-04T00:06:52;93300.34;;;8.65;85.66
40592;BME280;26301;42.832;23.918;2022-11-04T00:09:21;93284.63;;;8.55;86.13
40592;BME280;26301;42.832;23.918;2022-11-04T00:11:47;93282.19;;;8.60;86.26
40592;BME280;26301;42.832;23.918;2022-11-04T00:14:32;93295.06;;;8.60;86.32
40592;BME280;26301;42.832;23.918;2022-11-04T00:16:59;93294.41;;;8.64;86.36
40592;BME280;26301;42.832;23.918;2022-11-04T00:19:53;93267.50;;;8.49;86.55
40592;BME280;26301;42.832;23.918;2022-11-04T00:22:39;93295.63;;;8.62;86.42
40592;BME280;26301;42.832;23.918;2022-11-04T00:25:24;93279.41;;;8.61;85.79
40592;BME280;26301;42.832;23.918;2022-11-04T00:28:14;93247.88;;;8.47;85.78
40592;BME280;26301;42.832;23.918;2022-11-04T00:31:00;93263.16;;;8.61;85.50
40592;BME280;26301;42.832;23.918;2022-11-04T00:33:47;93255.31;;;8.56;85.19
40592;BME280;26301;42.832;23.918;2022-11-04T00:36:13;93230.97;;;8.40;85.01
40592;BME280;26301;42.832;23.918;2022-11-04T00:38:39;93248.81;;;8.53;84.85
40592;BME280;26301;42.832;23.918;2022-11-04T00:41:05;93254.19;;;8.52;84.70
40592;BME280;26301;42.832;23.918;2022-11-04T00:43:54;93243.53;;;8.48;85.20
40592;BME280;26301;42.832;23.918;2022-11-04T00:46:20;93274.34;;;8.55;85.70
40592;BME280;26301;42.832;23.918;2022-11-04T00:48:46;93269.50;;;8.46;85.63
40592;BME280;26301;42.832;23.918;2022-11-04T00:51:12;93274.97;;;8.50;85.15
40592;BME280;26301;42.832;23.918;2022-11-04T00:53:38;93249.84;;;8.34;85.24
40592;BME280;26301;42.832;23.918;2022-11-04T00:56:04;93245.47;;;8.34;85.78
40592;BME280;26301;42.832;23.918;2022-11-04T00:58:30;93243.06;;;8.21;85.56
40592;BME280;26301;42.832;23.918;2022-11-04T01:00:56;93245.78;;;8.26;85.88
40592;BME280;26301;42.832;23.918;2022-11-04T01:03:21;93236.16;;;8.21;85.85
40592;BME280;26301;42.832;23.918;2022-11-04T01:05:47;93257.69;;;8.39;85.38
40592;BME280;26301;42.832;23.918;2022-11-04T01:08:13;93230.06;;;8.16;85.43
40592;BME280;26301;42.832;23.918;2022-11-04T01:10:39;93247.69;;;8.31;86.20
40592;BME280;26301;42.832;23.918;2022-11-04T01:13:10;93249.91;;;8.27;85.93
40592;BME280;26301;42.832;23.918;2022-11-04T01:15:36;93225.66;;;8.05;86.17
40592;BME280;26301;42.832;23.918;2022-11-04T01:18:03;93240.66;;;8.08;86.93
40592;BME280;26301;42.832;23.918;2022-11-04T01:20:28;93241.22;;;8.10;86.49
40592;BME280;26301;42.832;23.918;2022-11-04T01:22:54;93239.44;;;8.10;86.94
40592;BME280;26301;42.832;23.918;2022-11-04T01:25:19;93223.59;;;7.95;87.06
40592;BME280;26301;42.832;23.918;2022-11-04T01:27:45;93241.66;;;8.07;86.92
40592;BME280;26301;42.832;23.918;2022-11-04T01:30:11;93225.25;;;7.89;86.52
40592;BME280;26301;42.832;23.918;2022-11-04T01:32:37;93236.59;;;8.00;86.33
40592;BME280;26301;42.832;23.918;2022-11-04T01:35:02;93232.00;;;8.02;86.50
40592;BME280;26301;42.832;23.918;2022-11-04T01:37:28;93229.88;;;7.99;85.72
40592;BME280;26301;42.832;23.918;2022-11-04T01:39:54;93229.69;;;8.00;84.97
40592;BME280;26301;42.832;23.918;2022-11-04T01:42:20;93186.13;;;7.69;85.61
40592;BME280;26301;42.832;23.918;2022-11-04T01:44:49;93222.44;;;7.91;86.10
40592;BME280;26301;42.832;23.918;2022-11-04T01:47:39;93225.16;;;7.96;85.39
40592;BME280;26301;42.832;23.918;2022-11-04T01:50:11;93211.38;;;7.90;85.31
40592;BME280;26301;42.832;23.918;2022-11-04T01:55:28;93209.09;;;7.82;84.54
40592;BME280;26301;42.832;23.918;2022-11-04T01:58:03;93186.47;;;7.72;85.65
40592;BME280;26301;42.832;23.918;2022-11-04T02:00:30;93214.19;;;7.89;85.16
40592;BME280;26301;42.832;23.918;2022-11-04T02:03:03;93140.38;;;7.41;84.79
40592;BME280;26301;42.832;23.918;2022-11-04T02:05:31;93193.41;;;7.72;83.54
40592;BME280;26301;42.832;23.918;2022-11-04T02:07:57;93189.56;;;7.63;84.87
40592;BME280;26301;42.832;23.918;2022-11-04T02:10:28;93196.91;;;7.59;85.97
40592;BME280;26301;42.832;23.918;2022-11-04T02:12:56;93203.84;;;7.59;86.02
40592;BME280;26301;42.832;23.918;2022-11-04T02:15:34;93174.84;;;7.33;86.67
40592;BME280;26301;42.832;23.918;2022-11-04T02:18:10;93208.59;;;7.55;87.24
40592;BME280;26301;42.832;23.918;2022-11-04T02:32:13;93203.13;;;7.33;86.60
40592;BME280;26301;42.832;23.918;2022-11-04T02:34:54;93199.50;;;7.41;86.83
40592;BME280;26301;42.832;23.918;2022-11-04T02:40:27;93167.72;;;7.17;86.66
40592;BME280;26301;42.832;23.918;2022-11-04T02:43:11;93176.34;;;7.22;86.01
40592;BME280;26301;42.832;23.918;2022-11-04T02:48:54;93178.13;;;7.22;85.08
40592;BME280;26301;42.832;23.918;2022-11-04T02:51:31;93198.47;;;7.23;85.87
40592;BME280;26301;42.832;23.918;2022-11-04T02:54:33;93202.47;;;7.19;86.76
40592;BME280;26301;42.832;23.918;2022-11-04T02:57:03;93189.16;;;7.04;87.46
40592;BME280;26301;42.832;23.918;2022-11-04T02:59:36;93197.16;;;6.96;88.09
40592;BME280;26301;42.832;23.918;2022-11-04T03:02:06;93192.84;;;6.90;88.05
40592;BME280;26301;42.832;23.918;2022-11-04T03:04:37;93180.34;;;6.75;87.94
40592;BME280;26301;42.832;23.918;2022-11-04T03:07:07;93179.56;;;6.74;88.96
40592;BME280;26301;42.832;23.918;2022-11-04T03:09:36;93181.31;;;6.74;88.10
40592;BME280;26301;42.832;23.918;2022-11-04T03:12:08;93167.13;;;6.46;89.02
40592;BME280;26301;42.832;23.918;2022-11-04T03:14:38;93183.47;;;6.52;90.81
40592;BME280;26301;42.832;23.918;2022-11-04T03:17:14;93182.47;;;6.53;90.74
40592;BME280;26301;42.832;23.918;2022-11-04T03:19:59;93185.78;;;6.60;90.83
40592;BME280;26301;42.832;23.918;2022-11-04T03:22:29;93175.69;;;6.65;89.95
40592;BME280;26301;42.832;23.918;2022-11-04T03:24:55;93153.94;;;6.43;90.83
40592;BME280;26301;42.832;23.918;2022-11-04T03:27:55;93178.28;;;6.58;90.91
40592;BME280;26301;42.832;23.918;2022-11-04T03:30:25;93171.81;;;6.56;90.58
40592;BME280;26301;42.832;23.918;2022-11-04T03:35:45;93184.06;;;6.54;91.17
40592;BME280;26301;42.832;23.918;2022-11-04T03:38:11;93158.88;;;6.44;90.82
40592;BME280;26301;42.832;23.918;2022-11-04T03:40:37;93167.28;;;6.51;90.40
40592;BME280;26301;42.832;23.918;2022-11-04T03:43:10;93142.94;;;6.35;90.95
40592;BME280;26301;42.832;23.918;2022-11-04T03:45:38;93149.56;;;6.43;90.20
40592;BME280;26301;42.832;23.918;2022-11-04T03:48:06;93173.31;;;6.63;90.62
40592;BME280;26301;42.832;23.918;2022-11-04T03:50:40;93175.63;;;6.72;89.83
40592;BME280;26301;42.832;23.918;2022-11-04T03:53:06;93167.41;;;6.63;89.56
40592;BME280;26301;42.832;23.918;2022-11-04T04:04:27;93174.81;;;6.46;89.85
40592;BME280;26301;42.832;23.918;2022-11-04T04:06:57;93152.03;;;6.31;90.98
40592;BME280;26301;42.832;23.918;2022-11-04T04:09:48;93134.19;;;6.18;92.24
40592;BME280;26301;42.832;23.918;2022-11-04T04:12:37;93140.69;;;6.21;91.25
40592;BME280;26301;42.832;23.918;2022-11-04T04:15:41;93159.53;;;6.33;90.66
40592;BME280;26301;42.832;23.918;2022-11-04T04:18:12;93163.28;;;6.30;91.02
40592;BME280;26301;42.832;23.918;2022-11-04T04:20:39;93154.88;;;6.23;91.28
40592;BME280;26301;42.832;23.918;2022-11-04T04:23:20;93141.88;;;6.18;91.36
40592;BME280;26301;42.832;23.918;2022-11-04T04:26:23;93150.16;;;6.20;91.23
40592;BME280;26301;42.832;23.918;2022-11-04T04:29:08;93148.63;;;6.12;93.20
40592;BME280;26301;42.832;23.918;2022-11-04T04:31:37;93151.00;;;6.07;92.82
40592;BME280;26301;42.832;23.918;2022-11-04T04:34:21;93146.47;;;6.09;91.83
40592;BME280;26301;42.832;23.918;2022-11-04T04:39:22;93126.44;;;5.86;92.67
40592;BME280;26301;42.832;23.918;2022-11-04T04:42:08;93147.91;;;5.99;91.58
40592;BME280;26301;42.832;23.918;2022-11-04T04:44:52;93146.69;;;6.01;92.50
40592;BME280;26301;42.832;23.918;2022-11-04T04:47:26;93131.78;;;5.85;92.49
40592;BME280;26301;42.832;23.918;2022-11-04T04:49:59;93153.25;;;5.97;93.86
40592;BME280;26301;42.832;23.918;2022-11-04T04:52:32;93150.47;;;5.99;92.58
40592;BME280;26301;42.832;23.918;2022-11-04T04:54:59;93129.59;;;5.95;92.35
40592;BME280;26301;42.832;23.918;2022-11-04T04:57:25;93126.63;;;5.91;92.17
40592;BME280;26301;42.832;23.918;2022-11-04T04:59:50;93092.50;;;5.59;91.40
40592;BME280;26301;42.832;23.918;2022-11-04T05:02:16;93117.25;;;5.79;94.48
40592;BME280;26301;42.832;23.918;2022-11-04T05:04:41;93144.13;;;6.01;93.81
40592;BME280;26301;42.832;23.918;2022-11-04T05:07:07;93117.09;;;5.67;93.62
40592;BME280;26301;42.832;23.918;2022-11-04T05:09:34;93150.16;;;5.82;93.89
40592;BME280;26301;42.832;23.918;2022-11-04T05:12:00;93128.34;;;5.66;93.09
40592;BME280;26301;42.832;23.918;2022-11-04T05:14:26;93133.88;;;5.63;95.41
40592;BME280;26301;42.832;23.918;2022-11-04T05:16:52;93140.94;;;5.67;97.64
40592;BME280;26301;42.832;23.918;2022-11-04T05:19:17;93147.03;;;5.73;97.69
40592;BME280;26301;42.832;23.918;2022-11-04T05:21:43;93156.84;;;5.83;98.31
40592;BME280;26301;42.832;23.918;2022-11-04T05:24:09;93134.22;;;5.73;97.50
40592;BME280;26301;42.832;23.918;2022-11-04T05:26:35;93136.31;;;5.83;95.95
40592;BME280;26301;42.832;23.918;2022-11-04T05:29:00;93127.50;;;5.79;95.72
40592;BME280;26301;42.832;23.918;2022-11-04T05:31:26;93154.22;;;5.89;95.96
40592;BME280;26301;42.832;23.918;2022-11-04T05:33:52;93162.13;;;5.94;97.33
40592;BME280;26301;42.832;23.918;2022-11-04T05:36:18;93168.03;;;5.95;98.02
40592;BME280;26301;42.832;23.918;2022-11-04T05:38:49;93158.31;;;6.04;98.27
40592;BME280;26301;42.832;23.918;2022-11-04T05:41:16;93166.94;;;6.16;98.14
40592;BME280;26301;42.832;23.918;2022-11-04T05:43:51;93165.84;;;6.30;98.18
40592;BME280;26301;42.832;23.918;2022-11-04T05:46:17;93163.88;;;6.32;97.29
40592;BME280;26301;42.832;23.918;2022-11-04T05:48:42;93161.44;;;6.44;97.41
40592;BME280;26301;42.832;23.918;2022-11-04T05:51:15;93170.31;;;6.67;97.26
40592;BME280;26301;42.832;23.918;2022-11-04T05:53:42;93145.91;;;6.57;96.04
40592;BME280;26301;42.832;23.918;2022-11-04T05:56:08;93169.94;;;6.88;95.67
40592;BME280;26301;42.832;23.918;2022-11-04T05:58:33;93147.63;;;6.88;95.36
40592;BME280;26301;42.832;23.918;2022-11-04T06:03:38;93176.91;;;7.24;96.53
40592;BME280;26301;42.832;23.918;2022-11-04T06:06:04;93148.19;;;7.34;96.19
40592;BME280;26301;42.832;23.918;2022-11-04T06:08:29;93164.19;;;7.66;94.41
40592;BME280;26301;42.832;23.918;2022-11-04T06:10:56;93178.66;;;7.79;96.18
40592;BME280;26301;42.832;23.918;2022-11-04T06:13:21;93162.59;;;7.84;96.49
40592;BME280;26301;42.832;23.918;2022-11-04T06:15:47;93149.13;;;8.00;96.58
40592;BME280;26301;42.832;23.918;2022-11-04T06:18:12;93172.84;;;8.32;92.66
40592;BME280;26301;42.832;23.918;2022-11-04T06:20:38;93172.25;;;8.49;91.23
40592;BME280;26301;42.832;23.918;2022-11-04T06:23:04;93164.53;;;8.60;93.05
40592;BME280;26301;42.832;23.918;2022-11-04T06:25:29;93178.34;;;8.89;93.35
40592;BME280;26301;42.832;23.918;2022-11-04T06:27:55;93146.06;;;8.87;93.61
40592;BME280;26301;42.832;23.918;2022-11-04T06:30:21;93178.09;;;9.26;93.93
40592;BME280;26301;42.832;23.918;2022-11-04T06:32:46;93184.69;;;9.46;96.03
40592;BME280;26301;42.832;23.918;2022-11-04T06:35:12;93169.09;;;9.52;88.91
40592;BME280;26301;42.832;23.918;2022-11-04T06:37:37;93167.91;;;9.83;91.90
40592;BME280;26301;42.832;23.918;2022-11-04T06:40:04;93162.03;;;10.00;92.01
40592;BME280;26301;42.832;23.918;2022-11-04T06:42:29;93176.06;;;10.21;89.90
40592;BME280;26301;42.832;23.918;2022-11-04T06:44:55;93177.25;;;10.42;90.38
40592;BME280;26301;42.832;23.918;2022-11-04T06:47:21;93152.59;;;10.51;87.99
40592;BME280;26301;42.832;23.918;2022-11-04T06:49:47;93166.38;;;10.90;85.44
40592;BME280;26301;42.832;23.918;2022-11-04T06:52:12;93177.03;;;11.11;83.43
40592;BME280;26301;42.832;23.918;2022-11-04T06:54:38;93180.00;;;11.19;79.06
40592;BME280;26301;42.832;23.918;2022-11-04T06:57:04;93173.59;;;11.44;74.12
40592;BME280;26301;42.832;23.918;2022-11-04T06:59:30;93171.56;;;11.68;71.68
40592;BME280;26301;42.832;23.918;2022-11-04T07:01:55;93166.69;;;11.94;71.68
40592;BME280;26301;42.832;23.918;2022-11-04T07:04:21;93140.81;;;11.94;72.11
40592;BME280;26301;42.832;23.918;2022-11-04T07:06:46;93146.69;;;12.11;69.77
40592;BME280;26301;42.832;23.918;2022-11-04T07:09:14;93167.97;;;12.40;70.56
40592;BME280;26301;42.832;23.918;2022-11-04T07:11:40;93158.72;;;12.49;68.75
40592;BME280;26301;42.832;23.918;2022-11-04T07:14:07;93158.91;;;12.75;67.57
40592;BME280;26301;42.832;23.918;2022-11-04T07:16:33;93153.56;;;12.87;64.75
40592;BME280;26301;42.832;23.918;2022-11-04T07:18:59;93163.84;;;13.09;63.40
40592;BME280;26301;42.832;23.918;2022-11-04T07:21:25;93143.25;;;13.29;59.50
40592;BME280;26301;42.832;23.918;2022-11-04T07:23:51;93148.53;;;13.49;59.27
40592;BME280;26301;42.832;23.918;2022-11-04T07:26:16;93129.41;;;13.61;61.20
40592;BME280;26301;42.832;23.918;2022-11-04T07:28:42;93136.81;;;14.00;57.36
40592;BME280;26301;42.832;23.918;2022-11-04T07:31:11;93141.84;;;14.47;53.61
40592;BME280;26301;42.832;23.918;2022-11-04T07:33:37;93142.41;;;14.75;51.89
40592;BME280;26301;42.832;23.918;2022-11-04T07:36:07;93138.75;;;14.81;55.00
40592;BME280;26301;42.832;23.918;2022-11-04T07:38:34;93132.25;;;14.94;57.15
40592;BME280;26301;42.832;23.918;2022-11-04T07:41:01;93108.31;;;14.97;53.19
40592;BME280;26301;42.832;23.918;2022-11-04T07:43:27;93110.06;;;15.22;52.75
40592;BME280;26301;42.832;23.918;2022-11-04T07:46:10;93116.03;;;15.38;49.75
40592;BME280;26301;42.832;23.918;2022-11-04T07:48:37;93116.53;;;15.50;49.43
40592;BME280;26301;42.832;23.918;2022-11-04T07:51:04;93101.91;;;15.54;51.64
40592;BME280;26301;42.832;23.918;2022-11-04T07:53:30;93110.09;;;15.97;49.90
40592;BME280;26301;42.832;23.918;2022-11-04T07:55:56;93077.97;;;16.12;46.77
40592;BME280;26301;42.832;23.918;2022-11-04T07:58:23;93094.91;;;16.49;47.51
40592;BME280;26301;42.832;23.918;2022-11-04T08:00:50;93106.22;;;16.73;46.10
40592;BME280;26301;42.832;23.918;2022-11-04T08:03:16;93075.19;;;16.77;44.60
40592;BME280;26301;42.832;23.918;2022-11-04T08:05:41;93086.09;;;17.08;45.09
40592;BME280;26301;42.832;23.918;2022-11-04T08:08:07;93067.28;;;17.11;44.77
40592;BME280;26301;42.832;23.918;2022-11-04T08:10:33;93066.13;;;17.22;44.07
40592;BME280;26301;42.832;23.918;2022-11-04T08:12:59;93084.53;;;17.36;42.70
40592;BME280;26301;42.832;23.918;2022-11-04T08:15:25;93078.00;;;17.57;42.05
40592;BME280;26301;42.832;23.918;2022-11-04T08:17:50;93081.41;;;17.58;43.43
40592;BME280;26301;42.832;23.918;2022-11-04T08:20:16;93083.41;;;17.66;44.16
40592;BME280;26301;42.832;23.918;2022-11-04T08:22:42;93070.47;;;17.75;44.66
40592;BME280;26301;42.832;23.918;2022-11-04T08:25:08;93068.91;;;17.79;40.30
40592;BME280;26301;42.832;23.918;2022-11-04T08:27:37;93065.78;;;17.96;41.26
40592;BME280;26301;42.832;23.918;2022-11-04T08:30:03;93062.97;;;17.92;41.34
40592;BME280;26301;42.832;23.918;2022-11-04T08:32:29;93057.88;;;18.01;41.59
40592;BME280;26301;42.832;23.918;2022-11-04T08:34:54;93058.59;;;18.07;39.19
40592;BME280;26301;42.832;23.918;2022-11-04T08:37:20;93027.94;;;18.12;40.84
40592;BME280;26301;42.832;23.918;2022-11-04T08:39:46;93036.75;;;18.16;41.75
40592;BME280;26301;42.832;23.918;2022-11-04T08:42:12;93054.94;;;18.26;41.61
40592;BME280;26301;42.832;23.918;2022-11-04T08:44:37;93039.09;;;18.18;39.86
40592;BME280;26301;42.832;23.918;2022-11-04T08:47:04;93035.28;;;18.10;37.72
40592;BME280;26301;42.832;23.918;2022-11-04T08:49:29;93038.22;;;18.41;39.50
40592;BME280;26301;42.832;23.918;2022-11-04T08:51:55;93041.25;;;18.48;42.20
40592;BME280;26301;42.832;23.918;2022-11-04T08:54:25;93054.94;;;18.59;39.21
40592;BME280;26301;42.832;23.918;2022-11-04T08:56:51;93030.28;;;18.46;36.22
40592;BME280;26301;42.832;23.918;2022-11-04T08:59:17;93037.13;;;18.61;37.01
40592;BME280;26301;42.832;23.918;2022-11-04T09:01:43;93045.59;;;18.53;39.61
40592;BME280;26301;42.832;23.918;2022-11-04T09:04:10;93027.19;;;18.44;36.35
40592;BME280;26301;42.832;23.918;2022-11-04T09:06:39;93034.69;;;18.51;36.47
40592;BME280;26301;42.832;23.918;2022-11-04T09:09:06;93025.97;;;18.56;38.75
40592;BME280;26301;42.832;23.918;2022-11-04T09:11:36;93029.38;;;18.70;37.71
40592;BME280;26301;42.832;23.918;2022-11-04T09:14:03;93008.22;;;18.52;35.77
40592;BME280;26301;42.832;23.918;2022-11-04T09:16:31;93021.84;;;18.68;36.67
40592;BME280;26301;42.832;23.918;2022-11-04T09:18:57;93018.53;;;18.63;36.92
40592;BME280;26301;42.832;23.918;2022-11-04T09:21:24;93007.06;;;18.59;37.62
40592;BME280;26301;42.832;23.918;2022-11-04T09:23:50;93010.19;;;18.61;38.01
40592;BME280;26301;42.832;23.918;2022-11-04T09:26:16;93003.00;;;18.52;34.79
40592;BME280;26301;42.832;23.918;2022-11-04T09:28:42;92992.00;;;18.69;35.76
40592;BME280;26301;42.832;23.918;2022-11-04T09:31:10;92980.69;;;18.74;36.31
40592;BME280;26301;42.832;23.918;2022-11-04T09:33:36;92992.72;;;18.75;35.33
40592;BME280;26301;42.832;23.918;2022-11-04T09:36:02;92982.72;;;18.77;35.75
40592;BME280;26301;42.832;23.918;2022-11-04T09:38:28;93015.41;;;18.93;35.11
40592;BME280;26301;42.832;23.918;2022-11-04T09:40:54;93000.78;;;18.92;34.32
40592;BME280;26301;42.832;23.918;2022-11-04T09:43:44;92983.31;;;18.88;34.04
40592;BME280;26301;42.832;23.918;2022-11-04T09:46:13;92991.66;;;18.90;34.35
40592;BME280;26301;42.832;23.918;2022-11-04T09:48:47;92977.63;;;19.00;33.46
40592;BME280;26301;42.832;23.918;2022-11-04T09:51:16;92991.47;;;19.00;33.79
40592;BME280;26301;42.832;23.918;2022-11-04T09:54:07;92972.09;;;18.87;34.13
40592;BME280;26301;42.832;23.918;2022-11-04T09:56:37;92977.91;;;19.12;34.13
40592;BME280;26301;42.832;23.918;2022-11-04T09:59:10;92956.69;;;19.13;34.28
40592;BME280;26301;42.832;23.918;2022-11-04T10:01:55;92986.22;;;19.41;34.54
40592;BME280;26301;42.832;23.918;2022-11-04T10:19:03;92970.19;;;19.57;33.83
40592;BME280;26301;42.832;23.918;2022-11-04T10:21:46;92979.78;;;19.61;33.69
40592;BME280;26301;42.832;23.918;2022-11-04T10:27:22;92962.91;;;19.54;33.16
40592;BME280;26301;42.832;23.918;2022-11-04T10:29:44;92945.47;;;19.49;35.25
40592;BME280;26301;42.832;23.918;2022-11-04T10:32:32;92954.47;;;19.57;33.73
40592;BME280;26301;42.832;23.918;2022-11-04T10:37:50;92950.31;;;19.56;35.93
40592;BME280;26301;42.832;23.918;2022-11-04T10:40:23;92952.13;;;19.55;34.19
40592;BME280;26301;42.832;23.918;2022-11-04T10:42:55;92949.34;;;19.66;34.05
40592;BME280;26301;42.832;23.918;2022-11-04T10:45:31;92940.13;;;19.68;35.48
40592;BME280;26301;42.832;23.918;2022-11-04T10:48:07;92932.25;;;19.68;34.85
40592;BME280;26301;42.832;23.918;2022-11-04T10:50:55;92946.06;;;19.82;34.26
40592;BME280;26301;42.832;23.918;2022-11-04T10:53:26;92941.66;;;19.69;32.40
40592;BME280;26301;42.832;23.918;2022-11-04T10:56:13;92931.25;;;19.64;35.82
40592;BME280;26301;42.832;23.918;2022-11-04T10:58:46;92948.94;;;19.72;34.21
40592;BME280;26301;42.832;23.918;2022-11-04T11:01:33;92936.31;;;19.74;36.29
40592;BME280;26301;42.832;23.918;2022-11-04T11:04:00;92917.69;;;19.62;34.59
40592;BME280;26301;42.832;23.918;2022-11-04T11:06:33;92941.69;;;19.92;36.21
40592;BME280;26301;42.832;23.918;2022-11-04T11:09:18;92940.91;;;19.91;35.94
40592;BME280;26301;42.832;23.918;2022-11-04T11:11:47;92928.09;;;19.90;36.14
40592;BME280;26301;42.832;23.918;2022-11-04T11:17:24;92928.78;;;19.95;36.14
40592;BME280;26301;42.832;23.918;2022-11-04T11:19:57;92919.88;;;19.82;36.09
40592;BME280;26301;42.832;23.918;2022-11-04T11:22:41;92904.03;;;19.65;36.95
40592;BME280;26301;42.832;23.918;2022-11-04T11:25:23;92914.44;;;19.79;37.08
40592;BME280;26301;42.832;23.918;2022-11-04T11:32:58;92877.91;;;19.60;35.87
40592;BME280;26301;42.832;23.918;2022-11-04T11:35:30;92880.19;;;19.53;35.85
40592;BME280;26301;42.832;23.918;2022-11-04T11:37:57;92873.97;;;19.49;36.89
40592;BME280;26301;42.832;23.918;2022-11-04T11:40:30;92895.16;;;19.61;36.62
40592;BME280;26301;42.832;23.918;2022-11-04T11:42:58;92888.31;;;19.65;35.42
40592;BME280;26301;42.832;23.918;2022-11-04T11:45:25;92879.28;;;19.57;35.97
40592;BME280;26301;42.832;23.918;2022-11-04T11:47:52;92875.13;;;19.56;36.59
40592;BME280;26301;42.832;23.918;2022-11-04T11:53:18;92852.13;;;19.53;35.09
40592;BME280;26301;42.832;23.918;2022-11-04T11:56:26;92816.69;;;19.33;35.61
40592;BME280;26301;42.832;23.918;2022-11-04T12:01:50;92843.38;;;19.35;34.73
40592;BME280;26301;42.832;23.918;2022-11-04T12:04:18;92852.09;;;19.31;35.65
40592;BME280;26301;42.832;23.918;2022-11-04T12:21:18;92850.63;;;19.38;37.87
40592;BME280;26301;42.832;23.918;2022-11-04T12:23:55;92844.91;;;19.36;37.33
40592;BME280;26301;42.832;23.918;2022-11-04T12:34:36;92838.56;;;19.51;36.85
40592;BME280;26301;42.832;23.918;2022-11-04T12:42:33;92835.59;;;19.67;36.06
40592;BME280;26301;42.832;23.918;2022-11-04T12:47:45;92817.28;;;19.67;36.49
40592;BME280;26301;42.832;23.918;2022-11-04T12:59:03;92824.03;;;19.90;33.69
40592;BME280;26301;42.832;23.918;2022-11-04T13:01:53;92830.41;;;19.98;34.40
40592;BME280;26301;42.832;23.918;2022-11-04T13:04:24;92831.97;;;19.99;36.25
40592;BME280;26301;42.832;23.918;2022-11-04T13:07:03;92828.63;;;19.84;36.15
40592;BME280;26301;42.832;23.918;2022-11-04T13:09:42;92832.69;;;19.91;35.99
40592;BME280;26301;42.832;23.918;2022-11-04T13:12:39;92836.25;;;19.95;36.02
40592;BME280;26301;42.832;23.918;2022-11-04T13:15:20;92825.72;;;19.86;36.84
40592;BME280;26301;42.832;23.918;2022-11-04T13:17:50;92825.25;;;19.84;36.95
40592;BME280;26301;42.832;23.918;2022-11-04T13:21:07;92839.50;;;20.00;37.63
40592;BME280;26301;42.832;23.918;2022-11-04T13:23:41;92839.81;;;19.99;35.03
40592;BME280;26301;42.832;23.918;2022-11-04T13:26:13;92816.72;;;19.78;36.10
40592;BME280;26301;42.832;23.918;2022-11-04T13:28:41;92813.28;;;19.69;37.08
40592;BME280;26301;42.832;23.918;2022-11-04T13:34:27;92832.72;;;19.68;37.28
40592;BME280;26301;42.832;23.918;2022-11-04T13:37:28;92842.19;;;19.64;36.76
40592;BME280;26301;42.832;23.918;2022-11-04T13:39:59;92820.16;;;19.42;38.92
40592;BME280;26301;42.832;23.918;2022-11-04T13:42:35;92837.53;;;19.61;38.33
40592;BME280;26301;42.832;23.918;2022-11-04T13:45:10;92839.81;;;19.54;39.41
40592;BME280;26301;42.832;23.918;2022-11-04T13:47:51;92841.28;;;19.46;40.02
40592;BME280;26301;42.832;23.918;2022-11-04T13:50:35;92822.53;;;19.30;39.49
40592;BME280;26301;42.832;23.918;2022-11-04T13:53:07;92824.19;;;19.26;38.21
40592;BME280;26301;42.832;23.918;2022-11-04T13:55:35;92845.00;;;19.31;39.01
40592;BME280;26301;42.832;23.918;2022-11-04T13:58:03;92832.09;;;19.12;38.51
40592;BME280;26301;42.832;23.918;2022-11-04T14:00:33;92822.72;;;18.98;39.04
40592;BME280;26301;42.832;23.918;2022-11-04T14:08:23;92839.59;;;18.91;39.16
40592;BME280;26301;42.832;23.918;2022-11-04T14:16:02;92844.25;;;18.67;40.83
40592;BME280;26301;42.832;23.918;2022-11-04T14:18:31;92836.03;;;18.60;39.57
40592;BME280;26301;42.832;23.918;2022-11-04T14:23:59;92836.50;;;18.48;39.12
40592;BME280;26301;42.832;23.918;2022-11-04T14:26:46;92820.53;;;18.36;40.34
40592;BME280;26301;42.832;23.918;2022-11-04T14:29:18;92824.31;;;18.30;40.92
40592;BME280;26301;42.832;23.918;2022-11-04T14:31:49;92848.53;;;18.35;40.85
40592;BME280;26301;42.832;23.918;2022-11-04T14:34:29;92823.13;;;18.22;40.96
40592;BME280;26301;42.832;23.918;2022-11-04T14:37:01;92849.44;;;18.25;40.20
40592;BME280;26301;42.832;23.918;2022-11-04T14:39:35;92833.25;;;17.96;41.95
40592;BME280;26301;42.832;23.918;2022-11-04T14:42:04;92845.94;;;18.02;40.77
40592;BME280;26301;42.832;23.918;2022-11-04T14:44:34;92846.53;;;17.99;40.88
40592;BME280;26301;42.832;23.918;2022-11-04T14:49:59;92837.59;;;17.68;42.29
40592;BME280;26301;42.832;23.918;2022-11-04T14:55:12;92832.69;;;17.47;43.32
40592;BME280;26301;42.832;23.918;2022-11-04T14:57:48;92819.03;;;17.36;44.41
40592;BME280;26301;42.832;23.918;2022-11-04T15:03:14;92758.75;;;16.81;45.19
40592;BME280;26301;42.832;23.918;2022-11-04T15:05:50;92791.41;;;16.79;44.94
40592;BME280;26301;42.832;23.918;2022-11-04T15:08:36;92817.94;;;16.62;45.22
40592;BME280;26301;42.832;23.918;2022-11-04T15:13:55;92807.41;;;16.24;46.21
40592;BME280;26301;42.832;23.918;2022-11-04T15:16:26;92810.94;;;16.09;47.17
40592;BME280;26301;42.832;23.918;2022-11-04T15:18:55;92785.69;;;15.86;46.90
40592;BME280;26301;42.832;23.918;2022-11-04T15:21:21;92806.59;;;15.75;47.03
40592;BME280;26301;42.832;23.918;2022-11-04T15:23:50;92799.25;;;15.48;48.95
40592;BME280;26301;42.832;23.918;2022-11-04T15:26:25;92794.19;;;15.28;48.46
40592;BME280;26301;42.832;23.918;2022-11-04T15:28:52;92807.75;;;15.25;48.64
40592;BME280;26301;42.832;23.918;2022-11-04T15:31:21;92774.66;;;14.96;48.35
40592;BME280;26301;42.832;23.918;2022-11-04T15:33:50;92797.50;;;15.04;49.16
40592;BME280;26301;42.832;23.918;2022-11-04T15:36:26;92791.28;;;15.00;48.36